Mineral, Indiana
Current Conditions -  °F | °C
As of 8:22 AM on Monday 22 Dec 2014 (Local Time) from KBMG Reporting Station
Overcast Overcast  
Wind Chill: 27°   Ceiling: 1000
Heat Index: 34°   Visibility: 9mi
Dew Point: 29°   Wind: 8mph
Humidity: 82%   Direction: 130°SE
Pressure: 29.94"   Gusts: NA
Location:  39.0306°N, 86.8553°W
Report Text: KBMG 221322Z 13007KT 9SM BKN010 BKN014 OVC033 01/M02 A2994 RMK AO2 CIG 008V012 T00111017
Loading
Personal Weather Stations






























Interactive Weather Map New forecast layout! Learn more

10-Day Weather Forecast

Advertisements
Track Severe Weather on mobile